sensor_id;sensor_type;location;lat;lon;timestamp;pressure;altitude;pressure_sealevel;temperature;humidity
47913;BME280;33676;51.006;17.180;2023-04-15T00:01:00;98818.90;;;10.93;100.00
47913;BME280;33676;51.006;17.180;2023-04-15T00:03:29;98818.19;;;10.91;100.00
47913;BME280;33676;51.006;17.180;2023-04-15T00:05:58;98820.39;;;10.91;100.00
47913;BME280;33676;51.006;17.180;2023-04-15T00:08:27;98816.04;;;10.91;100.00
47913;BME280;33676;51.006;17.180;2023-04-15T00:10:57;98815.51;;;10.91;100.00
47913;BME280;33676;51.006;17.180;2023-04-15T00:13:31;98821.00;;;10.91;100.00
47913;BME280;33676;51.006;17.180;2023-04-15T00:16:01;98826.05;;;10.91;100.00
47913;BME280;33676;51.006;17.180;2023-04-15T00:18:33;98826.80;;;10.93;100.00
47913;BME280;33676;51.006;17.180;2023-04-15T00:21:04;98823.81;;;10.93;100.00
47913;BME280;33676;51.006;17.180;2023-04-15T00:23:32;98822.44;;;10.94;100.00
47913;BME280;33676;51.006;17.180;2023-04-15T00:26:01;98820.58;;;10.95;100.00
47913;BME280;33676;51.006;17.180;2023-04-15T00:28:29;98817.41;;;10.97;100.00
47913;BME280;33676;51.006;17.180;2023-04-15T00:30:58;98818.77;;;10.98;100.00
47913;BME280;33676;51.006;17.180;2023-04-15T00:33:26;98819.65;;;10.99;100.00
47913;BME280;33676;51.006;17.180;2023-04-15T00:35:55;98819.13;;;11.01;100.00
47913;BME280;33676;51.006;17.180;2023-04-15T00:38:23;98820.81;;;11.02;100.00
47913;BME280;33676;51.006;17.180;2023-04-15T00:40:51;98821.01;;;11.03;100.00
47913;BME280;33676;51.006;17.180;2023-04-15T00:43:20;98821.04;;;11.03;100.00
47913;BME280;33676;51.006;17.180;2023-04-15T00:45:51;98823.86;;;11.03;100.00
47913;BME280;33676;51.006;17.180;2023-04-15T00:49:10;98824.42;;;11.06;100.00
47913;BME280;33676;51.006;17.180;2023-04-15T00:51:40;98823.95;;;11.02;100.00
47913;BME280;33676;51.006;17.180;2023-04-15T00:54:08;98823.59;;;11.00;100.00
47913;BME280;33676;51.006;17.180;2023-04-15T00:56:37;98823.02;;;10.99;100.00
47913;BME280;33676;51.006;17.180;2023-04-15T00:59:07;98826.34;;;10.99;100.00
47913;BME280;33676;51.006;17.180;2023-04-15T01:01:37;98828.69;;;10.98;100.00
47913;BME280;33676;51.006;17.180;2023-04-15T01:04:06;98832.75;;;10.98;100.00
47913;BME280;33676;51.006;17.180;2023-04-15T01:06:35;98837.11;;;10.98;100.00
47913;BME280;33676;51.006;17.180;2023-04-15T01:09:04;98834.98;;;10.98;100.00
47913;BME280;33676;51.006;17.180;2023-04-15T01:11:32;98835.17;;;10.98;100.00
47913;BME280;33676;51.006;17.180;2023-04-15T01:14:01;98832.55;;;10.98;100.00
47913;BME280;33676;51.006;17.180;2023-04-15T01:16:30;98830.98;;;10.98;100.00
47913;BME280;33676;51.006;17.180;2023-04-15T01:18:59;98833.80;;;10.98;100.00
47913;BME280;33676;51.006;17.180;2023-04-15T01:21:28;98835.79;;;10.97;100.00
47913;BME280;33676;51.006;17.180;2023-04-15T01:23:57;98839.53;;;10.97;100.00
47913;BME280;33676;51.006;17.180;2023-04-15T01:26:26;98839.98;;;10.93;100.00
47913;BME280;33676;51.006;17.180;2023-04-15T01:28:55;98841.23;;;10.93;100.00
47913;BME280;33676;51.006;17.180;2023-04-15T01:31:24;98842.90;;;10.94;100.00
47913;BME280;33676;51.006;17.180;2023-04-15T01:33:53;98845.13;;;10.95;100.00
47913;BME280;33676;51.006;17.180;2023-04-15T01:36:21;98850.86;;;10.95;100.00
47913;BME280;33676;51.006;17.180;2023-04-15T01:38:50;98855.33;;;10.96;100.00
47913;BME280;33676;51.006;17.180;2023-04-15T01:41:26;98851.40;;;10.97;100.00
47913;BME280;33676;51.006;17.180;2023-04-15T01:43:55;98850.98;;;10.97;100.00
47913;BME280;33676;51.006;17.180;2023-04-15T01:46:23;98854.79;;;10.98;100.00
47913;BME280;33676;51.006;17.180;2023-04-15T01:48:52;98857.60;;;10.98;100.00
47913;BME280;33676;51.006;17.180;2023-04-15T01:51:20;98857.23;;;10.98;100.00
47913;BME280;33676;51.006;17.180;2023-04-15T01:53:49;98852.78;;;10.97;100.00
47913;BME280;33676;51.006;17.180;2023-04-15T01:56:18;98855.37;;;10.97;100.00
47913;BME280;33676;51.006;17.180;2023-04-15T01:58:46;98852.52;;;10.94;100.00
47913;BME280;33676;51.006;17.180;2023-04-15T02:01:14;98852.30;;;10.90;100.00
47913;BME280;33676;51.006;17.180;2023-04-15T02:03:44;98854.73;;;10.83;100.00
47913;BME280;33676;51.006;17.180;2023-04-15T02:06:13;98856.01;;;10.76;100.00
47913;BME280;33676;51.006;17.180;2023-04-15T02:08:42;98855.45;;;10.71;100.00
47913;BME280;33676;51.006;17.180;2023-04-15T02:14:12;98862.10;;;10.57;100.00
47913;BME280;33676;51.006;17.180;2023-04-15T02:25:14;98871.36;;;10.26;100.00
47913;BME280;33676;51.006;17.180;2023-04-15T02:27:44;98871.88;;;10.13;100.00
47913;BME280;33676;51.006;17.180;2023-04-15T02:30:12;98872.05;;;10.06;100.00
47913;BME280;33676;51.006;17.180;2023-04-15T02:32:41;98865.96;;;10.01;100.00
47913;BME280;33676;51.006;17.180;2023-04-15T02:35:18;98868.16;;;9.96;100.00
47913;BME280;33676;51.006;17.180;2023-04-15T02:37:47;98874.49;;;9.92;100.00
47913;BME280;33676;51.006;17.180;2023-04-15T02:40:15;98877.38;;;9.87;100.00
47913;BME280;33676;51.006;17.180;2023-04-15T02:42:44;98881.55;;;9.84;100.00
47913;BME280;33676;51.006;17.180;2023-04-15T02:45:13;98886.34;;;9.81;100.00
47913;BME280;33676;51.006;17.180;2023-04-15T02:47:41;98891.59;;;9.80;100.00
47913;BME280;33676;51.006;17.180;2023-04-15T02:50:12;98894.96;;;9.77;100.00
47913;BME280;33676;51.006;17.180;2023-04-15T02:52:41;98899.60;;;9.76;100.00
47913;BME280;33676;51.006;17.180;2023-04-15T02:55:10;98905.31;;;9.75;100.00
47913;BME280;33676;51.006;17.180;2023-04-15T02:57:38;98906.01;;;9.73;100.00
47913;BME280;33676;51.006;17.180;2023-04-15T03:00:09;98912.50;;;9.71;100.00
47913;BME280;33676;51.006;17.180;2023-04-15T03:03:04;98916.84;;;9.68;100.00
47913;BME280;33676;51.006;17.180;2023-04-15T03:05:34;98924.13;;;9.64;100.00
47913;BME280;33676;51.006;17.180;2023-04-15T03:10:45;98932.86;;;9.61;100.00
47913;BME280;33676;51.006;17.180;2023-04-15T03:13:13;98931.92;;;9.56;100.00
47913;BME280;33676;51.006;17.180;2023-04-15T03:15:42;98932.04;;;9.53;100.00
47913;BME280;33676;51.006;17.180;2023-04-15T03:18:10;98935.91;;;9.49;100.00
47913;BME280;33676;51.006;17.180;2023-04-15T03:23:53;98946.71;;;9.42;100.00
47913;BME280;33676;51.006;17.180;2023-04-15T03:26:29;98948.20;;;9.37;100.00
47913;BME280;33676;51.006;17.180;2023-04-15T03:28:58;98956.04;;;9.34;100.00
47913;BME280;33676;51.006;17.180;2023-04-15T03:31:27;98956.13;;;9.29;100.00
47913;BME280;33676;51.006;17.180;2023-04-15T03:33:55;98962.25;;;9.25;100.00
47913;BME280;33676;51.006;17.180;2023-04-15T03:36:24;98966.81;;;9.21;100.00
47913;BME280;33676;51.006;17.180;2023-04-15T03:38:53;98977.83;;;9.17;100.00
47913;BME280;33676;51.006;17.180;2023-04-15T03:41:22;98978.50;;;9.11;100.00
47913;BME280;33676;51.006;17.180;2023-04-15T03:43:50;98981.52;;;9.05;100.00
47913;BME280;33676;51.006;17.180;2023-04-15T03:46:19;98984.75;;;8.99;100.00
47913;BME280;33676;51.006;17.180;2023-04-15T03:48:48;98988.75;;;8.91;100.00
47913;BME280;33676;51.006;17.180;2023-04-15T03:51:17;98993.23;;;8.84;100.00
47913;BME280;33676;51.006;17.180;2023-04-15T03:53:45;98996.20;;;8.79;100.00
47913;BME280;33676;51.006;17.180;2023-04-15T03:56:13;99003.35;;;8.75;100.00
47913;BME280;33676;51.006;17.180;2023-04-15T03:58:42;99005.45;;;8.71;100.00
47913;BME280;33676;51.006;17.180;2023-04-15T04:01:10;98997.73;;;8.66;100.00
47913;BME280;33676;51.006;17.180;2023-04-15T04:03:38;98991.09;;;8.60;100.00
47913;BME280;33676;51.006;17.180;2023-04-15T04:06:07;98988.55;;;8.55;100.00
47913;BME280;33676;51.006;17.180;2023-04-15T04:08:35;99000.14;;;8.50;100.00
47913;BME280;33676;51.006;17.180;2023-04-15T04:11:04;99009.91;;;8.46;100.00
47913;BME280;33676;51.006;17.180;2023-04-15T04:13:32;99015.14;;;8.42;100.00
47913;BME280;33676;51.006;17.180;2023-04-15T04:16:01;99015.21;;;8.40;100.00
47913;BME280;33676;51.006;17.180;2023-04-15T04:18:32;99018.71;;;8.36;100.00
47913;BME280;33676;51.006;17.180;2023-04-15T04:21:01;99016.55;;;8.32;100.00
47913;BME280;33676;51.006;17.180;2023-04-15T04:23:29;99015.15;;;8.28;100.00
47913;BME280;33676;51.006;17.180;2023-04-15T04:25:58;99024.30;;;8.23;100.00
47913;BME280;33676;51.006;17.180;2023-04-15T04:28:26;99032.02;;;8.21;100.00
47913;BME280;33676;51.006;17.180;2023-04-15T04:30:55;99034.02;;;8.20;100.00
47913;BME280;33676;51.006;17.180;2023-04-15T04:33:23;99032.17;;;8.19;100.00
47913;BME280;33676;51.006;17.180;2023-04-15T04:35:52;99039.92;;;8.18;100.00
47913;BME280;33676;51.006;17.180;2023-04-15T04:38:20;99046.77;;;8.16;100.00
47913;BME280;33676;51.006;17.180;2023-04-15T04:40:48;99050.35;;;8.14;100.00
47913;BME280;33676;51.006;17.180;2023-04-15T04:43:17;99056.34;;;8.13;100.00
47913;BME280;33676;51.006;17.180;2023-04-15T04:45:45;99055.77;;;8.12;100.00
47913;BME280;33676;51.006;17.180;2023-04-15T04:48:14;99059.26;;;8.12;100.00
47913;BME280;33676;51.006;17.180;2023-04-15T04:50:44;99062.17;;;8.13;100.00
47913;BME280;33676;51.006;17.180;2023-04-15T04:53:14;99063.20;;;8.12;100.00
47913;BME280;33676;51.006;17.180;2023-04-15T04:55:43;99060.46;;;8.12;100.00
47913;BME280;33676;51.006;17.180;2023-04-15T04:58:11;99060.60;;;8.13;100.00
47913;BME280;33676;51.006;17.180;2023-04-15T05:00:40;99060.71;;;8.13;100.00
47913;BME280;33676;51.006;17.180;2023-04-15T05:03:09;99068.80;;;8.14;100.00
47913;BME280;33676;51.006;17.180;2023-04-15T05:05:38;99068.71;;;8.15;100.00
47913;BME280;33676;51.006;17.180;2023-04-15T05:08:09;99071.25;;;8.16;100.00
47913;BME280;33676;51.006;17.180;2023-04-15T05:10:38;99074.13;;;8.17;100.00
47913;BME280;33676;51.006;17.180;2023-04-15T05:13:06;99077.00;;;8.18;100.00
47913;BME280;33676;51.006;17.180;2023-04-15T05:15:35;99075.39;;;8.20;100.00
47913;BME280;33676;51.006;17.180;2023-04-15T05:18:06;99072.42;;;8.23;100.00
47913;BME280;33676;51.006;17.180;2023-04-15T05:20:34;99069.48;;;8.24;100.00
47913;BME280;33676;51.006;17.180;2023-04-15T05:23:03;99071.77;;;8.28;100.00
47913;BME280;33676;51.006;17.180;2023-04-15T05:25:31;99071.09;;;8.32;100.00
47913;BME280;33676;51.006;17.180;2023-04-15T05:28:00;99077.08;;;8.35;100.00
47913;BME280;33676;51.006;17.180;2023-04-15T05:33:29;99085.27;;;8.45;100.00
47913;BME280;33676;51.006;17.180;2023-04-15T05:35:58;99087.16;;;8.49;100.00
47913;BME280;33676;51.006;17.180;2023-04-15T05:41:48;99096.84;;;8.63;100.00
47913;BME280;33676;51.006;17.180;2023-04-15T05:44:47;99098.05;;;8.68;100.00
47913;BME280;33676;51.006;17.180;2023-04-15T05:50:19;99100.63;;;8.74;100.00
47913;BME280;33676;51.006;17.180;2023-04-15T05:52:48;99097.52;;;8.76;100.00
47913;BME280;33676;51.006;17.180;2023-04-15T05:55:17;99096.92;;;8.78;100.00
47913;BME280;33676;51.006;17.180;2023-04-15T05:57:46;99102.42;;;8.81;100.00
47913;BME280;33676;51.006;17.180;2023-04-15T06:00:32;99104.73;;;8.84;100.00
47913;BME280;33676;51.006;17.180;2023-04-15T06:03:26;99112.21;;;8.88;100.00
47913;BME280;33676;51.006;17.180;2023-04-15T06:05:55;99107.19;;;8.94;100.00
47913;BME280;33676;51.006;17.180;2023-04-15T06:08:24;99114.09;;;9.00;100.00
47913;BME280;33676;51.006;17.180;2023-04-15T06:10:52;99117.45;;;9.07;100.00
47913;BME280;33676;51.006;17.180;2023-04-15T06:13:21;99124.17;;;9.16;100.00
47913;BME280;33676;51.006;17.180;2023-04-15T06:15:49;99129.31;;;9.21;100.00
47913;BME280;33676;51.006;17.180;2023-04-15T06:18:17;99133.01;;;9.26;100.00
47913;BME280;33676;51.006;17.180;2023-04-15T06:20:47;99134.48;;;9.31;100.00
47913;BME280;33676;51.006;17.180;2023-04-15T06:23:17;99140.08;;;9.37;100.00
47913;BME280;33676;51.006;17.180;2023-04-15T06:28:38;99136.54;;;9.47;100.00
47913;BME280;33676;51.006;17.180;2023-04-15T06:31:06;99137.09;;;9.52;100.00
47913;BME280;33676;51.006;17.180;2023-04-15T06:33:34;99139.35;;;9.61;100.00
47913;BME280;33676;51.006;17.180;2023-04-15T06:36:03;99138.32;;;9.69;100.00
47913;BME280;33676;51.006;17.180;2023-04-15T06:38:31;99139.56;;;9.76;100.00
47913;BME280;33676;51.006;17.180;2023-04-15T06:40:59;99136.80;;;9.83;100.00
47913;BME280;33676;51.006;17.180;2023-04-15T06:43:28;99138.13;;;9.95;100.00
47913;BME280;33676;51.006;17.180;2023-04-15T07:03:40;99147.05;;;10.90;99.95
47913;BME280;33676;51.006;17.180;2023-04-15T07:06:09;99157.83;;;10.96;99.79
47913;BME280;33676;51.006;17.180;2023-04-15T07:08:38;99160.27;;;10.94;99.90
47913;BME280;33676;51.006;17.180;2023-04-15T07:11:06;99162.05;;;10.99;99.79
47913;BME280;33676;51.006;17.180;2023-04-15T07:13:34;99160.09;;;11.00;99.64
47913;BME280;33676;51.006;17.180;2023-04-15T07:16:04;99164.09;;;11.03;99.83
47913;BME280;33676;51.006;17.180;2023-04-15T07:18:32;99171.01;;;11.09;100.00
47913;BME280;33676;51.006;17.180;2023-04-15T07:21:01;99172.88;;;11.13;99.96
47913;BME280;33676;51.006;17.180;2023-04-15T07:23:29;99183.98;;;11.18;99.95
47913;BME280;33676;51.006;17.180;2023-04-15T07:25:58;99187.56;;;11.22;99.85
47913;BME280;33676;51.006;17.180;2023-04-15T07:28:26;99192.09;;;11.26;99.79
47913;BME280;33676;51.006;17.180;2023-04-15T07:30:55;99192.23;;;11.34;99.67
47913;BME280;33676;51.006;17.180;2023-04-15T07:33:26;99195.23;;;11.44;99.54
47913;BME280;33676;51.006;17.180;2023-04-15T07:35:55;99196.34;;;11.57;99.08
47913;BME280;33676;51.006;17.180;2023-04-15T07:38:24;99196.11;;;11.70;99.25
47913;BME280;33676;51.006;17.180;2023-04-15T07:40:53;99199.61;;;11.81;98.96
47913;BME280;33676;51.006;17.180;2023-04-15T07:43:21;99201.89;;;11.91;98.90
47913;BME280;33676;51.006;17.180;2023-04-15T07:45:50;99199.57;;;12.02;98.34
47913;BME280;33676;51.006;17.180;2023-04-15T07:48:18;99196.77;;;12.05;97.37
47913;BME280;33676;51.006;17.180;2023-04-15T07:50:47;99200.67;;;12.10;96.66
47913;BME280;33676;51.006;17.180;2023-04-15T07:53:21;99196.52;;;12.18;97.23
47913;BME280;33676;51.006;17.180;2023-04-15T07:55:51;99197.73;;;12.27;96.52
47913;BME280;33676;51.006;17.180;2023-04-15T07:58:19;99201.00;;;12.34;96.14
47913;BME280;33676;51.006;17.180;2023-04-15T08:00:48;99202.56;;;12.38;95.60
47913;BME280;33676;51.006;17.180;2023-04-15T08:03:21;99209.37;;;12.45;95.33
47913;BME280;33676;51.006;17.180;2023-04-15T08:05:53;99215.30;;;12.53;95.24
47913;BME280;33676;51.006;17.180;2023-04-15T08:08:23;99207.52;;;12.64;95.43
47913;BME280;33676;51.006;17.180;2023-04-15T08:10:53;99213.48;;;12.69;94.49
47913;BME280;33676;51.006;17.180;2023-04-15T08:13:21;99218.40;;;12.73;93.81
47913;BME280;33676;51.006;17.180;2023-04-15T08:16:21;99222.73;;;12.83;94.38
47913;BME280;33676;51.006;17.180;2023-04-15T08:18:53;99222.46;;;13.07;94.77
47913;BME280;33676;51.006;17.180;2023-04-15T08:21:23;99229.32;;;13.22;93.93
47913;BME280;33676;51.006;17.180;2023-04-15T08:23:52;99229.02;;;13.37;94.17
47913;BME280;33676;51.006;17.180;2023-04-15T08:26:22;99229.94;;;13.54;94.29
47913;BME280;33676;51.006;17.180;2023-04-15T08:28:50;99231.68;;;13.66;93.42
47913;BME280;33676;51.006;17.180;2023-04-15T08:31:19;99232.34;;;13.70;92.63
47913;BME280;33676;51.006;17.180;2023-04-15T08:33:49;99233.39;;;13.60;91.06
47913;BME280;33676;51.006;17.180;2023-04-15T08:36:20;99238.16;;;13.54;91.27
47913;BME280;33676;51.006;17.180;2023-04-15T08:38:49;99238.69;;;13.52;90.81
47913;BME280;33676;51.006;17.180;2023-04-15T08:41:21;99241.13;;;13.51;90.39
47913;BME280;33676;51.006;17.180;2023-04-15T08:44:00;99242.63;;;13.47;89.68
47913;BME280;33676;51.006;17.180;2023-04-15T08:55:40;99255.42;;;13.72;88.95
47913;BME280;33676;51.006;17.180;2023-04-15T08:58:12;99260.70;;;13.73;88.28
47913;BME280;33676;51.006;17.180;2023-04-15T09:00:44;99257.34;;;13.87;89.01
47913;BME280;33676;51.006;17.180;2023-04-15T09:03:15;99257.05;;;14.04;88.94
47913;BME280;33676;51.006;17.180;2023-04-15T09:05:45;99258.48;;;14.18;88.54
47913;BME280;33676;51.006;17.180;2023-04-15T09:08:14;99255.33;;;14.29;87.93
47913;BME280;33676;51.006;17.180;2023-04-15T09:10:46;99257.16;;;14.38;87.42
47913;BME280;33676;51.006;17.180;2023-04-15T09:13:14;99257.61;;;14.42;86.68
47913;BME280;33676;51.006;17.180;2023-04-15T09:16:05;99259.92;;;14.51;87.08
47913;BME280;33676;51.006;17.180;2023-04-15T09:18:39;99261.16;;;14.73;87.86
47913;BME280;33676;51.006;17.180;2023-04-15T09:21:15;99261.03;;;14.96;87.68
47913;BME280;33676;51.006;17.180;2023-04-15T09:24:14;99263.02;;;15.11;87.15
47913;BME280;33676;51.006;17.180;2023-04-15T09:26:47;99264.27;;;15.25;86.90
47913;BME280;33676;51.006;17.180;2023-04-15T09:29:20;99268.95;;;15.37;86.71
47913;BME280;33676;51.006;17.180;2023-04-15T09:31:52;99265.54;;;15.49;86.33
47913;BME280;33676;51.006;17.180;2023-04-15T09:34:20;99266.40;;;15.68;86.69
47913;BME280;33676;51.006;17.180;2023-04-15T09:36:53;99266.73;;;15.94;86.76
47913;BME280;33676;51.006;17.180;2023-04-15T09:39:22;99272.74;;;16.14;87.04
47913;BME280;33676;51.006;17.180;2023-04-15T09:42:06;99275.07;;;16.20;85.73
47913;BME280;33676;51.006;17.180;2023-04-15T09:44:36;99275.59;;;16.35;85.16
47913;BME280;33676;51.006;17.180;2023-04-15T09:47:04;99275.28;;;16.59;84.97
47913;BME280;33676;51.006;17.180;2023-04-15T09:49:33;99277.64;;;16.82;84.38
47913;BME280;33676;51.006;17.180;2023-04-15T09:52:02;99281.91;;;17.06;84.97
47913;BME280;33676;51.006;17.180;2023-04-15T09:54:36;99280.33;;;17.37;85.52
47913;BME280;33676;51.006;17.180;2023-04-15T09:57:08;99282.65;;;17.75;85.86
47913;BME280;33676;51.006;17.180;2023-04-15T09:59:38;99277.24;;;18.17;85.65
47913;BME280;33676;51.006;17.180;2023-04-15T10:02:06;99282.50;;;18.43;84.50
47913;BME280;33676;51.006;17.180;2023-04-15T10:04:39;99284.63;;;18.55;83.52
47913;BME280;33676;51.006;17.180;2023-04-15T10:07:11;99283.91;;;18.65;82.61
47913;BME280;33676;51.006;17.180;2023-04-15T10:09:40;99289.90;;;18.77;81.15
47913;BME280;33676;51.006;17.180;2023-04-15T10:12:11;99291.65;;;18.89;81.15
47913;BME280;33676;51.006;17.180;2023-04-15T10:14:41;99285.96;;;19.05;80.37
47913;BME280;33676;51.006;17.180;2023-04-15T10:17:10;99283.44;;;19.17;79.99
47913;BME280;33676;51.006;17.180;2023-04-15T10:19:42;99283.77;;;19.27;79.50
47913;BME280;33676;51.006;17.180;2023-04-15T10:22:13;99282.88;;;19.27;78.88
47913;BME280;33676;51.006;17.180;2023-04-15T10:24:42;99280.93;;;19.30;78.93
47913;BME280;33676;51.006;17.180;2023-04-15T10:27:13;99285.58;;;19.41;78.06
47913;BME280;33676;51.006;17.180;2023-04-15T10:29:42;99281.56;;;19.41;77.08
47913;BME280;33676;51.006;17.180;2023-04-15T10:32:14;99284.08;;;19.54;77.73
47913;BME280;33676;51.006;17.180;2023-04-15T10:34:44;99285.06;;;19.82;78.03
47913;BME280;33676;51.006;17.180;2023-04-15T10:37:22;99289.41;;;19.96;77.03
47913;BME280;33676;51.006;17.180;2023-04-15T10:40:00;99287.40;;;20.24;77.76
47913;BME280;33676;51.006;17.180;2023-04-15T10:42:33;99290.48;;;20.61;77.65
47913;BME280;33676;51.006;17.180;2023-04-15T10:45:15;99292.17;;;20.58;75.62
47913;BME280;33676;51.006;17.180;2023-04-15T10:47:44;99294.55;;;20.40;73.99
47913;BME280;33676;51.006;17.180;2023-04-15T10:50:13;99291.27;;;20.23;73.53
47913;BME280;33676;51.006;17.180;2023-04-15T10:52:41;99290.20;;;20.16;72.83
47913;BME280;33676;51.006;17.180;2023-04-15T10:57:40;99294.36;;;20.35;73.65
47913;BME280;33676;51.006;17.180;2023-04-15T11:02:47;99295.52;;;20.03;72.06
47913;BME280;33676;51.006;17.180;2023-04-15T11:08:10;99296.04;;;19.94;71.30
47913;BME280;33676;51.006;17.180;2023-04-15T11:15:40;99290.55;;;20.40;71.92
47913;BME280;33676;51.006;17.180;2023-04-15T11:18:23;99293.83;;;20.40;71.26
47913;BME280;33676;51.006;17.180;2023-04-15T11:21:01;99296.89;;;20.40;70.31
47913;BME280;33676;51.006;17.180;2023-04-15T11:23:42;99299.55;;;20.64;70.84
47913;BME280;33676;51.006;17.180;2023-04-15T11:26:14;99302.49;;;21.03;70.97
47913;BME280;33676;51.006;17.180;2023-04-15T11:28:44;99302.16;;;21.20;70.41
47913;BME280;33676;51.006;17.180;2023-04-15T11:31:15;99307.61;;;21.07;70.00
47913;BME280;33676;51.006;17.180;2023-04-15T11:34:01;99307.33;;;20.90;69.64
47913;BME280;33676;51.006;17.180;2023-04-15T11:36:30;99304.55;;;20.86;69.29
47913;BME280;33676;51.006;17.180;2023-04-15T11:39:01;99305.88;;;20.76;69.46
47913;BME280;33676;51.006;17.180;2023-04-15T11:41:29;99303.88;;;20.71;69.43
47913;BME280;33676;51.006;17.180;2023-04-15T11:43:58;99309.85;;;20.76;69.58
47913;BME280;33676;51.006;17.180;2023-04-15T11:46:30;99314.16;;;20.80;69.75
47913;BME280;33676;51.006;17.180;2023-04-15T11:49:01;99310.70;;;20.82;69.14
47913;BME280;33676;51.006;17.180;2023-04-15T11:51:34;99313.39;;;20.89;69.17
47913;BME280;33676;51.006;17.180;2023-04-15T11:54:02;99316.70;;;21.09;68.81
47913;BME280;33676;51.006;17.180;2023-04-15T11:56:31;99313.27;;;21.38;68.48
47913;BME280;33676;51.006;17.180;2023-04-15T11:59:00;99315.44;;;21.56;67.77
47913;BME280;33676;51.006;17.180;2023-04-15T12:01:35;99317.41;;;21.47;67.18
47913;BME280;33676;51.006;17.180;2023-04-15T12:04:20;99320.72;;;21.50;67.01
47913;BME280;33676;51.006;17.180;2023-04-15T12:06:52;99323.02;;;21.47;66.74
47913;BME280;33676;51.006;17.180;2023-04-15T12:09:21;99327.05;;;21.57;66.98
47913;BME280;33676;51.006;17.180;2023-04-15T12:11:56;99325.42;;;21.61;66.33
47913;BME280;33676;51.006;17.180;2023-04-15T12:14:31;99327.46;;;21.64;66.55
47913;BME280;33676;51.006;17.180;2023-04-15T12:17:02;99328.66;;;21.94;67.07
47913;BME280;33676;51.006;17.180;2023-04-15T12:19:41;99333.27;;;22.37;66.75
47913;BME280;33676;51.006;17.180;2023-04-15T12:22:16;99334.23;;;22.44;66.25
47913;BME280;33676;51.006;17.180;2023-04-15T12:24:44;99334.77;;;22.43;66.04
47913;BME280;33676;51.006;17.180;2023-04-15T12:27:16;99338.05;;;22.67;65.84
47913;BME280;33676;51.006;17.180;2023-04-15T12:29:44;99342.58;;;23.28;66.66
47913;BME280;33676;51.006;17.180;2023-04-15T12:32:17;99338.52;;;24.02;66.95
47913;BME280;33676;51.006;17.180;2023-04-15T12:34:50;99334.81;;;24.67;66.65
47913;BME280;33676;51.006;17.180;2023-04-15T12:37:19;99341.70;;;25.18;66.83
47913;BME280;33676;51.006;17.180;2023-04-15T12:39:48;99340.58;;;25.84;67.11
47913;BME280;33676;51.006;17.180;2023-04-15T12:42:17;99335.23;;;26.42;66.78
47913;BME280;33676;51.006;17.180;2023-04-15T12:44:46;99334.10;;;26.96;66.05
47913;BME280;33676;51.006;17.180;2023-04-15T12:47:15;99330.08;;;27.50;65.37
47913;BME280;33676;51.006;17.180;2023-04-15T12:49:43;99326.23;;;27.87;63.71
47913;BME280;33676;51.006;17.180;2023-04-15T12:52:12;99324.66;;;28.12;62.55
47913;BME280;33676;51.006;17.180;2023-04-15T12:54:40;99329.88;;;28.28;60.83
47913;BME280;33676;51.006;17.180;2023-04-15T12:57:09;99336.58;;;28.44;60.74
47913;BME280;33676;51.006;17.180;2023-04-15T12:59:37;99339.27;;;28.57;60.04
47913;BME280;33676;51.006;17.180;2023-04-15T13:02:06;99335.77;;;28.76;60.03
47913;BME280;33676;51.006;17.180;2023-04-15T13:04:35;99332.65;;;28.95;59.40
47913;BME280;33676;51.006;17.180;2023-04-15T13:07:03;99331.16;;;29.16;59.71
47913;BME280;33676;51.006;17.180;2023-04-15T13:09:32;99342.11;;;29.48;59.19
47913;BME280;33676;51.006;17.180;2023-04-15T13:12:01;99339.44;;;29.65;58.58
47913;BME280;33676;51.006;17.180;2023-04-15T13:14:30;99343.63;;;29.78;57.86
47913;BME280;33676;51.006;17.180;2023-04-15T13:16:58;99344.08;;;29.89;57.47
47913;BME280;33676;51.006;17.180;2023-04-15T13:19:27;99340.92;;;30.12;57.92
47913;BME280;33676;51.006;17.180;2023-04-15T13:21:55;99337.45;;;30.34;57.60
47913;BME280;33676;51.006;17.180;2023-04-15T13:24:24;99332.91;;;30.45;56.80
47913;BME280;33676;51.006;17.180;2023-04-15T13:26:53;99334.79;;;30.44;56.40
47913;BME280;33676;51.006;17.180;2023-04-15T13:29:22;99332.09;;;30.43;56.21
47913;BME280;33676;51.006;17.180;2023-04-15T13:31:50;99331.02;;;30.53;56.22
47913;BME280;33676;51.006;17.180;2023-04-15T13:34:19;99330.58;;;30.56;55.30
47913;BME280;33676;51.006;17.180;2023-04-15T13:36:47;99332.30;;;30.52;54.94
47913;BME280;33676;51.006;17.180;2023-04-15T13:39:15;99335.34;;;30.44;54.29
47913;BME280;33676;51.006;17.180;2023-04-15T13:41:44;99340.27;;;30.27;53.63
47913;BME280;33676;51.006;17.180;2023-04-15T13:44:12;99343.21;;;30.09;53.48
47913;BME280;33676;51.006;17.180;2023-04-15T13:46:41;99336.89;;;30.04;53.85
47913;BME280;33676;51.006;17.180;2023-04-15T13:49:10;99332.27;;;30.24;54.13
47913;BME280;33676;51.006;17.180;2023-04-15T13:51:38;99334.14;;;30.53;54.56
47913;BME280;33676;51.006;17.180;2023-04-15T13:54:07;99330.17;;;30.88;54.83
47913;BME280;33676;51.006;17.180;2023-04-15T13:56:36;99329.92;;;31.28;54.78
47913;BME280;33676;51.006;17.180;2023-04-15T13:59:04;99336.09;;;31.53;54.51
47913;BME280;33676;51.006;17.180;2023-04-15T14:01:34;99330.91;;;31.77;54.24
47913;BME280;33676;51.006;17.180;2023-04-15T14:04:03;99333.31;;;31.98;53.84
47913;BME280;33676;51.006;17.180;2023-04-15T14:06:32;99331.50;;;32.14;53.78
47913;BME280;33676;51.006;17.180;2023-04-15T14:09:01;99326.14;;;32.57;54.56
47913;BME280;33676;51.006;17.180;2023-04-15T14:11:29;99327.73;;;33.06;54.28
47913;BME280;33676;51.006;17.180;2023-04-15T14:13:58;99333.83;;;33.30;53.13